»·PEaware :: UAL789 KPDX-KDEN

UAL789 :: KPDX-KDEN

FLIGHT INFORMATION

Flight Status: Arrived
Operator:
United Airlines
More flights by this operator :: More flights under this callsign
Pilot: Saso K. (7898)
Aircraft: BOEING 737-300
(B733)
More flights by this aircraft type
Origin: KPDX Portland Intl
United States
Destination: KDEN Denver Intl
United States
More flights between these airports :: More routes between these airports
Route: +WHAMY4 IMB J15 BOI J163 OCS GWEDO FRNCH3
File this flight plan on PilotEdge
Remarks: PBN / A1L1B1C1D1O1S2 EET / KZLC0025 KZDV0131
Altitude:
(Current/Filed)
35,000ft
Speed:
(Current/Filed)
414kts
Departed: 23-Mar-17 05:02 PM
Arrived: 23-Mar-17 07:16 PM
Distance/Time
Traveled:
859nm/2:14
Distance/Time
To Go:
Arrived

Flight Plot

Page will automatically refresh every two minutes.

Flight plan parsing failed; only flown route is shown


Map Options




Map Legend


Flown Route
Filed Route
Departure Airport
Arrival Airport
Navaid (VOR, NDB)
Fix

Horizontal Profiles

Position Reports

Time Latitude Longitude Heading Altitude Ground
Speed
23-Mar-17 16:42 45.590039 -122.591052 209 23ft 0kts
23-Mar-17 16:43 45.590039 -122.591052 209 23ft 0kts
23-Mar-17 16:44 45.590039 -122.591052 209 23ft 0kts
23-Mar-17 16:45 45.590039 -122.591052 209 23ft 0kts
23-Mar-17 16:46 45.590039 -122.591052 209 23ft 0kts
23-Mar-17 16:47 45.590039 -122.591052 209 23ft 0kts
23-Mar-17 16:48 45.590039 -122.591052 209 23ft 0kts
23-Mar-17 16:49 45.590039 -122.591052 209 23ft 0kts
23-Mar-17 16:50 45.590039 -122.591052 209 23ft 0kts
23-Mar-17 16:51 45.590039 -122.591052 209 23ft 0kts
23-Mar-17 16:52 45.590039 -122.591052 209 23ft 0kts
23-Mar-17 16:53 45.590039 -122.591052 209 23ft 0kts
23-Mar-17 16:54 45.590039 -122.591052 209 23ft 0kts
23-Mar-17 16:55 45.590039 -122.591052 209 23ft 0kts
23-Mar-17 16:56 45.590101 -122.591002 209 23ft 2kts
23-Mar-17 16:57 45.590647 -122.590557 211 23ft 0kts
23-Mar-17 16:58 45.590648 -122.590558 220 23ft 0kts
23-Mar-17 16:59 45.590629 -122.590579 222 23ft 2kts
23-Mar-17 17:00 45.591913 -122.593589 299 24ft 13kts
23-Mar-17 17:01 45.593886 -122.598647 298 27ft 15kts
23-Mar-17 17:02 45.595731 -122.600459 31 27ft 7kts
23-Mar-17 17:03 45.594389 -122.594551 119 26ft 81kts
23-Mar-17 17:04 45.577805 -122.543905 100 1278ft 166kts
23-Mar-17 17:05 45.566312 -122.472262 102 2991ft 232kts
23-Mar-17 17:06 45.552888 -122.397015 105 5459ft 251kts
23-Mar-17 17:07 45.519676 -122.306293 146 8838ft 258kts
23-Mar-17 17:08 45.463195 -122.242709 141 10437ft 310kts
23-Mar-17 17:09 45.399881 -122.161099 143 12527ft 334kts
23-Mar-17 17:10 45.335852 -122.079650 144 14854ft 346kts
23-Mar-17 17:11 45.268295 -121.994107 144 17351ft 362kts
23-Mar-17 17:12 45.223669 -121.865246 117 19577ft 403kts
23-Mar-17 17:13 45.186315 -121.720901 117 21640ft 422kts
23-Mar-17 17:14 45.153183 -121.592294 117 23270ft 438kts
23-Mar-17 17:15 45.105160 -121.407074 117 25357ft 459kts
23-Mar-17 17:16 45.063368 -121.247088 117 26814ft 478kts
23-Mar-17 17:17 45.025653 -121.103600 116 28058ft 492kts
23-Mar-17 17:18 44.972279 -120.901389 113 30065ft 499kts
23-Mar-17 17:19 44.926498 -120.730605 113 31799ft 501kts
23-Mar-17 17:20 44.888838 -120.590304 113 32573ft 516kts
23-Mar-17 17:21 44.840207 -120.410468 112 33705ft 526kts
23-Mar-17 17:22 44.785236 -120.208800 112 35023ft 514kts
23-Mar-17 17:23 44.744726 -120.061272 112 35001ft 505kts
23-Mar-17 17:24 44.694845 -119.880855 113 35042ft 507kts
23-Mar-17 17:25 44.644303 -119.699728 113 35021ft 508kts
23-Mar-17 17:26 44.582764 -119.489724 113 35043ft 513kts
23-Mar-17 17:27 44.539959 -119.343653 115 35034ft 511kts
23-Mar-17 17:28 44.487904 -119.167244 114 35032ft 512kts
23-Mar-17 17:29 44.434483 -118.987476 114 35044ft 510kts
23-Mar-17 17:30 44.383242 -118.816222 112 35037ft 495kts
23-Mar-17 17:31 44.331806 -118.645489 112 35029ft 493kts
23-Mar-17 17:32 44.280964 -118.477827 112 35042ft 494kts
23-Mar-17 17:33 44.232344 -118.318509 113 35028ft 493kts
23-Mar-17 17:34 44.179140 -118.145326 113 35046ft 494kts
23-Mar-17 17:35 44.125658 -117.972374 113 35056ft 494kts
23-Mar-17 17:36 44.071544 -117.798560 113 35070ft 494kts
23-Mar-17 17:37 44.017544 -117.626249 113 35081ft 494kts
23-Mar-17 17:38 43.962831 -117.452832 113 35084ft 494kts
23-Mar-17 17:39 43.909123 -117.283710 114 35078ft 493kts
23-Mar-17 17:40 43.855621 -117.116321 114 35085ft 494kts
23-Mar-17 17:41 43.802162 -116.950095 115 35092ft 473kts
23-Mar-17 17:42 43.751584 -116.793828 114 35048ft 460kts
23-Mar-17 17:43 43.699852 -116.634916 115 35080ft 465kts
23-Mar-17 17:44 43.647099 -116.473843 114 35079ft 464kts
23-Mar-17 17:45 43.596289 -116.319611 115 35076ft 464kts
23-Mar-17 17:46 43.545995 -116.159249 107 35079ft 464kts
23-Mar-17 17:47 43.513653 -115.988181 103 35071ft 465kts
23-Mar-17 17:48 43.483291 -115.816955 103 35067ft 464kts
23-Mar-17 17:49 43.452667 -115.646109 103 35063ft 464kts
23-Mar-17 17:50 43.421762 -115.475272 103 35064ft 465kts
23-Mar-17 17:51 43.391158 -115.307625 104 35059ft 464kts
23-Mar-17 17:52 43.357401 -115.138417 104 35070ft 462kts
23-Mar-17 17:53 43.326488 -114.971274 104 35021ft 446kts
23-Mar-17 17:54 43.296272 -114.809228 104 35012ft 446kts
23-Mar-17 17:55 43.265555 -114.645907 104 35009ft 446kts
23-Mar-17 17:56 43.234460 -114.481968 104 35010ft 447kts
23-Mar-17 17:57 43.204070 -114.323124 105 35004ft 446kts
23-Mar-17 17:58 43.172462 -114.159348 105 35016ft 446kts
23-Mar-17 17:59 43.138908 -113.995661 105 35000ft 457kts
23-Mar-17 18:00 43.106168 -113.828721 105 35021ft 458kts
23-Mar-17 18:01 43.073731 -113.663560 105 35022ft 458kts
23-Mar-17 18:02 43.040720 -113.496891 105 35028ft 458kts
23-Mar-17 18:03 43.008796 -113.337030 105 35029ft 459kts
23-Mar-17 18:04 42.975372 -113.171039 104 35018ft 460kts
23-Mar-17 18:05 42.942024 -113.006722 105 35005ft 461kts
23-Mar-17 18:06 42.908988 -112.845302 105 35002ft 450kts
23-Mar-17 18:07 42.878254 -112.696253 105 34988ft 443kts
23-Mar-17 18:08 42.834494 -112.543094 114 35000ft 446kts
23-Mar-17 18:09 42.785824 -112.396632 114 34997ft 445kts
23-Mar-17 18:10 42.739566 -112.257562 115 35000ft 445kts
23-Mar-17 18:11 42.690091 -112.109616 115 35003ft 445kts
23-Mar-17 18:12 42.640415 -111.961892 115 35021ft 445kts
23-Mar-17 18:13 42.589351 -111.810861 115 35025ft 445kts
23-Mar-17 18:14 42.541926 -111.671344 115 35027ft 444kts
23-Mar-17 18:15 42.492425 -111.526454 114 35027ft 445kts
23-Mar-17 18:16 42.445094 -111.388645 114 35024ft 444kts
23-Mar-17 18:17 42.399115 -111.255397 115 35029ft 445kts
23-Mar-17 18:18 42.351453 -111.117964 115 35026ft 445kts
23-Mar-17 18:19 42.303885 -110.981468 116 35032ft 443kts
23-Mar-17 18:20 42.255110 -110.842223 117 35026ft 436kts
23-Mar-17 18:21 42.204534 -110.698569 117 35020ft 437kts
23-Mar-17 18:22 42.152673 -110.552008 117 35017ft 437kts
23-Mar-17 18:23 42.100834 -110.406280 117 35016ft 437kts
23-Mar-17 18:24 42.050524 -110.265585 117 35016ft 437kts
23-Mar-17 18:25 41.998888 -110.121893 117 35016ft 437kts
23-Mar-17 18:26 41.947946 -109.980855 117 35013ft 437kts
23-Mar-17 18:27 41.898750 -109.845302 117 35013ft 437kts
23-Mar-17 18:28 41.863336 -109.748133 118 34998ft 437kts
23-Mar-17 18:29 41.812211 -109.608437 117 34979ft 436kts
23-Mar-17 18:30 41.761415 -109.470318 117 34979ft 437kts
23-Mar-17 18:31 41.713057 -109.339431 118 34980ft 437kts
23-Mar-17 18:32 41.661454 -109.200427 118 34978ft 437kts
23-Mar-17 18:33 41.610857 -109.064778 119 34984ft 433kts
23-Mar-17 18:34 41.562438 -108.930031 117 34978ft 428kts
23-Mar-17 18:35 41.519237 -108.790135 116 34979ft 430kts
23-Mar-17 18:36 41.476226 -108.649383 116 34982ft 430kts
23-Mar-17 18:37 41.432824 -108.509271 116 34982ft 430kts
23-Mar-17 18:38 41.389446 -108.368091 115 34976ft 430kts
23-Mar-17 18:39 41.355012 -108.253810 116 34961ft 430kts
23-Mar-17 18:40 41.303334 -108.113022 122 34938ft 427kts
23-Mar-17 18:41 41.248423 -107.975419 121 34934ft 427kts
23-Mar-17 18:42 41.194241 -107.837644 121 34935ft 428kts
23-Mar-17 18:43 41.139372 -107.698539 121 34934ft 428kts
23-Mar-17 18:44 41.084276 -107.559504 121 34935ft 427kts
23-Mar-17 18:45 41.029485 -107.421904 121 34935ft 425kts
23-Mar-17 18:46 40.978798 -107.295191 121 34935ft 423kts
23-Mar-17 18:47 40.924596 -107.160272 121 34930ft 422kts
23-Mar-17 18:48 40.883396 -107.058134 121 34915ft 423kts
23-Mar-17 18:49 40.833295 -106.934367 122 34887ft 421kts
23-Mar-17 18:50 40.784426 -106.814176 123 34869ft 421kts
23-Mar-17 18:51 40.733757 -106.690050 123 34872ft 420kts
23-Mar-17 18:52 40.683811 -106.568208 123 34872ft 420kts
23-Mar-17 18:53 40.633708 -106.446463 123 34872ft 421kts
23-Mar-17 18:54 40.587707 -106.335127 124 34871ft 420kts
23-Mar-17 18:55 40.539543 -106.216985 123 34523ft 425kts
23-Mar-17 18:56 40.488311 -106.093273 124 31896ft 435kts
23-Mar-17 18:57 40.437091 -105.953758 105 28577ft 463kts
23-Mar-17 18:58 40.412816 -105.789363 103 25724ft 462kts
23-Mar-17 18:59 40.386805 -105.628489 103 23203ft 450kts
23-Mar-17 19:00 40.361347 -105.472485 101 20965ft 423kts
23-Mar-17 19:01 40.304354 -105.353322 131 19738ft 377kts
23-Mar-17 19:02 40.242358 -105.257216 130 18543ft 350kts
23-Mar-17 19:03 40.181446 -105.161954 130 16853ft 339kts
23-Mar-17 19:04 40.123140 -105.071034 130 15524ft 331kts
23-Mar-17 19:05 40.065661 -104.981465 132 14415ft 323kts
23-Mar-17 19:06 40.010847 -104.896245 133 13447ft 309kts
23-Mar-17 19:07 39.957930 -104.818135 146 12491ft 297kts
23-Mar-17 19:08 39.891915 -104.806355 182 11665ft 290kts
23-Mar-17 19:09 39.815777 -104.808218 182 11001ft 271kts
23-Mar-17 19:10 39.749644 -104.809951 183 10674ft 238kts
23-Mar-17 19:11 39.697165 -104.779481 103 9821ft 237kts
23-Mar-17 19:12 39.699325 -104.703617 53 9139ft 202kts
23-Mar-17 19:13 39.737374 -104.662945 6 7617ft 172kts
23-Mar-17 19:14 39.780605 -104.661103 1 6623ft 129kts
23-Mar-17 19:15 39.816310 -104.660643 356 5757ft 136kts
23-Mar-17 19:16 39.848058 -104.660304 0 5401ft 61kts
23-Mar-17 19:17 39.853000 -104.661621 331 5413ft 0kts
23-Mar-17 19:18 39.853622 -104.662095 333 5415ft 11kts
23-Mar-17 19:19 39.857414 -104.662342 1 5425ft 16kts
23-Mar-17 19:20 39.860144 -104.664529 271 5423ft 15kts
23-Mar-17 19:21 39.860025 -104.669658 253 5415ft 11kts
23-Mar-17 19:22 39.859529 -104.672474 182 5403ft 2kts
23-Mar-17 19:23 39.859340 -104.672478 180 5404ft 0kts
23-Mar-17 19:24 39.859340 -104.672478 180 5404ft 0kts

Navigation Log

Ident Type
Flight plan parsing failed, navigation log unavailable